Time;durP1;ratioP1;P1;durP2;ratioP2;P2;SDS_P1;SDS_P2;PMS_P1;PMS_P2;Temp;Humidity;BMP_temperature;BMP_pressure;BME280_temperature;BME280_humidity;BME280_pressure;Samples;Min_cycle;Max_cycle;Signal;HPM_P1;HPM_P2
2022/11/16 00:01:37;;;;;;;61.17;55.40;;;;;;;7.94;100.00;100664.94;5051457;28;20942;-46
2022/11/16 00:04:05;;;;;;;63.63;57.13;;;;;;;7.95;100.00;100661.25;5051416;28;20971;-48
2022/11/16 00:06:32;;;;;;;61.10;55.27;;;;;;;7.94;100.00;100664.94;5051544;28;20440;-45
2022/11/16 00:11:49;;;;;;;62.50;56.30;;;;;;;7.95;100.00;100649.81;5051517;28;20459;-45
2022/11/16 00:14:17;;;;;;;62.30;55.90;;;;;;;7.97;100.00;100647.81;5051395;28;20459;-45
2022/11/16 00:16:46;;;;;;;62.70;56.20;;;;;;;7.99;100.00;100638.66;5051801;28;20851;-46
2022/11/16 00:19:14;;;;;;;63.43;56.63;;;;;;;8.00;100.00;100652.75;5051745;28;20471;-45
2022/11/16 00:21:41;;;;;;;61.40;55.07;;;;;;;7.93;100.00;100636.72;5051630;28;20520;-43
2022/11/16 00:24:11;;;;;;;61.07;55.03;;;;;;;7.96;100.00;100641.66;5051190;28;20521;-44
2022/11/16 00:26:39;;;;;;;61.67;55.00;;;;;;;7.92;100.00;100643.03;5051566;28;20446;-46
2022/11/16 00:29:07;;;;;;;59.90;54.23;;;;;;;7.91;100.00;100622.81;5051513;28;21018;-45
2022/11/16 00:31:34;;;;;;;58.80;53.20;;;;;;;7.89;100.00;100640.72;5051171;28;20508;-46
2022/11/16 00:34:03;;;;;;;58.80;52.73;;;;;;;7.91;100.00;100648.53;5051060;28;21041;-45
2022/11/16 00:36:31;;;;;;;56.87;51.10;;;;;;;7.88;100.00;100638.28;5051671;28;20840;-45
2022/11/16 00:38:58;;;;;;;60.70;54.23;;;;;;;7.89;100.00;100638.06;5051397;28;20552;-45
2022/11/16 00:41:26;;;;;;;59.37;53.17;;;;;;;7.90;100.00;100641.56;5051373;28;20773;-46
2022/11/16 00:43:53;;;;;;;60.07;54.07;;;;;;;7.91;100.00;100635.25;5050844;28;20559;-45
2022/11/16 00:46:21;;;;;;;61.03;55.20;;;;;;;7.95;100.00;100631.22;5051618;28;20504;-45
2022/11/16 00:48:49;;;;;;;58.40;52.20;;;;;;;7.93;100.00;100630.59;5051424;28;20435;-45
2022/11/16 00:51:18;;;;;;;61.63;55.47;;;;;;;7.93;100.00;100618.13;5049206;28;20504;-44
2022/11/16 00:53:45;;;;;;;59.47;53.17;;;;;;;7.93;100.00;100625.28;5034893;28;20517;-43
2022/11/16 00:56:13;;;;;;;63.20;55.20;;;;;;;7.90;100.00;100621.16;5051397;28;20435;-49
2022/11/16 00:58:40;;;;;;;61.30;54.80;;;;;;;7.91;100.00;100619.31;5051178;28;20430;-45
2022/11/16 01:01:11;;;;;;;62.83;55.93;;;;;;;7.94;100.00;100624.28;5051301;28;20427;-45
2022/11/16 01:03:39;;;;;;;64.83;57.60;;;;;;;7.90;100.00;100617.66;5050649;28;20463;-45
2022/11/16 01:06:08;;;;;;;64.40;57.07;;;;;;;7.88;100.00;100628.47;5051200;28;20932;-44
2022/11/16 01:08:39;;;;;;;68.10;56.03;;;;;;;7.86;100.00;100619.84;5051266;28;20431;-44
2022/11/16 01:13:53;;;;;;;67.60;55.90;;;;;;;7.89;100.00;100613.34;5050994;28;20463;-44
2022/11/16 01:16:23;;;;;;;64.53;57.60;;;;;;;7.93;100.00;100614.66;5051293;28;20782;-46
2022/11/16 01:18:52;;;;;;;69.00;58.60;;;;;;;7.91;100.00;100609.53;5051488;28;20461;-44
2022/11/16 01:21:21;;;;;;;82.47;59.77;;;;;;;7.94;100.00;100613.66;5054546;28;20431;-44
2022/11/16 01:23:50;;;;;;;71.90;59.53;;;;;;;7.95;100.00;100608.16;5054325;28;20462;-46
2022/11/16 01:26:18;;;;;;;73.10;58.23;;;;;;;7.94;100.00;100598.56;5054851;28;20946;-46
2022/11/16 01:28:46;;;;;;;69.93;56.83;;;;;;;7.96;100.00;100595.69;5054967;28;20991;-46
2022/11/16 01:31:14;;;;;;;65.47;57.77;;;;;;;7.98;100.00;100594.50;5054568;28;21222;-46
2022/11/16 01:33:42;;;;;;;65.73;56.67;;;;;;;7.92;100.00;100597.88;5054022;28;20455;-45
2022/11/16 01:36:15;;;;;;;77.07;57.93;;;;;;;7.94;100.00;100595.91;5054489;28;20435;-45
2022/11/16 01:38:45;;;;;;;67.00;58.63;;;;;;;7.92;100.00;100589.91;5054622;28;20493;-45
2022/11/16 01:41:17;;;;;;;64.50;57.47;;;;;;;7.96;100.00;100601.00;5054175;28;20467;-45
2022/11/16 01:43:54;;;;;;;71.63;55.87;;;;;;;7.96;100.00;100588.56;5054297;28;20528;-46
2022/11/16 01:46:21;;;;;;;70.53;59.07;;;;;;;7.96;100.00;100585.91;5054487;28;20958;-45
2022/11/16 01:48:52;;;;;;;65.43;57.23;;;;;;;7.93;100.00;100585.44;5054367;28;20431;-46
2022/11/16 01:51:20;;;;;;;63.53;56.63;;;;;;;7.97;100.00;100581.44;5051629;28;20431;-45
2022/11/16 01:53:48;;;;;;;62.33;55.60;;;;;;;8.01;100.00;100564.09;5053876;28;20459;-45
2022/11/16 01:56:17;;;;;;;65.63;57.47;;;;;;;7.97;100.00;100565.50;5054187;28;20954;-46
2022/11/16 01:58:45;;;;;;;63.97;56.27;;;;;;;7.99;100.00;100564.28;5054155;28;20456;-45
2022/11/16 02:01:13;;;;;;;65.13;56.37;;;;;;;7.99;100.00;100558.97;5054558;28;20475;-44
2022/11/16 02:03:41;;;;;;;64.63;56.97;;;;;;;8.05;100.00;100566.22;5053985;28;20483;-48
2022/11/16 02:06:28;;;;;;;64.33;55.50;;;;;;;8.04;100.00;100566.38;5054528;28;20484;-45
2022/11/16 02:12:17;;;;;;;59.23;52.90;;;;;;;8.07;100.00;100571.31;5053953;28;20455;-46
2022/11/16 02:15:07;;;;;;;59.13;51.43;;;;;;;8.05;100.00;100568.88;5053638;28;20509;-46
2022/11/16 02:17:43;;;;;;;59.00;52.70;;;;;;;8.07;100.00;100555.41;5055917;22;20569;-47
2022/11/16 02:20:42;;;;;;;58.17;51.80;;;;;;;8.05;100.00;100562.72;5033682;28;20471;-45
2022/11/16 02:23:43;;;;;;;57.97;52.10;;;;;;;7.99;100.00;100561.63;5033898;28;20844;-46
2022/11/16 02:26:25;;;;;;;57.23;51.00;;;;;;;7.97;100.00;100545.09;5033463;28;20490;-46
2022/11/16 02:29:09;;;;;;;55.63;50.00;;;;;;;7.99;100.00;100550.19;5033942;28;20428;-47
2022/11/16 02:31:42;;;;;;;56.20;50.40;;;;;;;7.98;100.00;100524.63;5033339;28;20483;-45
2022/11/16 02:34:14;;;;;;;56.37;49.33;;;;;;;7.99;100.00;100526.28;5026009;28;20473;-46
2022/11/16 02:36:45;;;;;;;53.67;48.40;;;;;;;8.01;100.00;100518.94;5013669;28;20982;-46
2022/11/16 02:39:17;;;;;;;52.17;47.37;;;;;;;8.00;100.00;100519.97;5014062;28;20421;-46
2022/11/16 02:41:48;;;;;;;55.93;49.93;;;;;;;7.98;100.00;100528.13;5013586;28;20472;-46
2022/11/16 02:44:21;;;;;;;56.07;50.50;;;;;;;8.01;100.00;100516.31;5013210;28;20469;-45
2022/11/16 02:46:55;;;;;;;54.13;49.00;;;;;;;7.97;100.00;100515.88;5013519;28;20495;-50
2022/11/16 02:49:25;;;;;;;52.33;47.20;;;;;;;7.94;100.00;100521.56;5013728;28;20432;-46
2022/11/16 02:51:54;;;;;;;51.60;46.70;;;;;;;7.92;100.00;100507.63;5010973;28;20918;-47
2022/11/16 02:54:23;;;;;;;54.27;48.40;;;;;;;7.93;100.00;100505.78;5021123;28;20865;-47
2022/11/16 02:56:55;;;;;;;53.90;48.47;;;;;;;7.96;100.00;100510.72;5013386;28;20457;-45
2022/11/16 02:59:29;;;;;;;56.70;50.50;;;;;;;7.97;100.00;100501.75;5013254;28;20429;-47
2022/11/16 03:02:02;;;;;;;52.33;47.73;;;;;;;7.96;100.00;100516.88;5013343;28;20503;-46
2022/11/16 03:04:37;;;;;;;53.03;47.73;;;;;;;7.97;100.00;100499.09;5022897;28;20472;-47
2022/11/16 03:07:08;;;;;;;51.50;46.87;;;;;;;7.97;100.00;100502.59;5032960;28;20455;-50
2022/11/16 03:09:40;;;;;;;53.67;48.27;;;;;;;8.00;100.00;100507.53;5032962;28;20438;-49
2022/11/16 03:12:11;;;;;;;54.67;49.17;;;;;;;8.01;100.00;100503.84;5032665;28;20486;-46
2022/11/16 03:14:44;;;;;;;51.80;47.30;;;;;;;8.02;100.00;100500.19;5032460;28;20795;-48
2022/11/16 03:17:17;;;;;;;50.73;46.00;;;;;;;8.05;100.00;100496.34;5032905;28;20452;-49
2022/11/16 03:19:53;;;;;;;51.23;46.60;;;;;;;8.05;100.00;100489.19;5032722;28;20932;-47
2022/11/16 03:22:26;;;;;;;52.93;47.73;;;;;;;8.05;100.00;100486.53;5032404;28;20482;-47
2022/11/16 03:24:54;;;;;;;53.20;48.20;;;;;;;8.06;100.00;100487.38;5018962;28;20461;-45
2022/11/16 03:27:28;;;;;;;53.63;48.60;;;;;;;8.07;100.00;100492.47;5012922;28;20516;-44
2022/11/16 03:30:05;;;;;;;52.63;47.90;;;;;;;8.03;100.00;100495.72;5012953;28;20436;-44
2022/11/16 03:32:38;;;;;;;52.40;47.60;;;;;;;8.06;100.00;100490.03;5012553;28;20846;-47
2022/11/16 03:35:11;;;;;;;51.47;47.30;;;;;;;8.04;100.00;100492.03;5012199;28;20529;-47
2022/11/16 03:37:41;;;;;;;50.57;46.20;;;;;;;8.03;100.00;100490.41;5012679;28;20453;-47
2022/11/16 03:40:11;;;;;;;53.20;48.20;;;;;;;8.03;100.00;100493.06;5012738;28;20437;-50
2022/11/16 03:42:40;;;;;;;49.37;45.30;;;;;;;8.04;100.00;100468.97;5011982;28;20456;-50
2022/11/16 03:45:11;;;;;;;53.83;49.07;;;;;;;8.01;100.00;100489.75;5027254;28;20837;-47
2022/11/16 03:47:39;;;;;;;53.93;49.13;;;;;;;7.99;100.00;100487.28;5032373;28;20509;-47
2022/11/16 03:50:08;;;;;;;51.50;47.30;;;;;;;7.98;100.00;100487.47;5032374;28;20440;-47
2022/11/16 03:52:36;;;;;;;51.23;46.53;;;;;;;7.95;100.00;100475.38;5029584;28;20432;-47
2022/11/16 03:55:05;;;;;;;50.17;45.80;;;;;;;7.96;100.00;100482.34;5031241;28;20873;-47
2022/11/16 03:57:32;;;;;;;55.10;50.00;;;;;;;7.99;100.00;100487.28;5031980;28;20452;-47
2022/11/16 04:00:00;;;;;;;54.70;49.27;;;;;;;7.98;100.00;100496.25;5031991;28;20446;-45
2022/11/16 04:02:29;;;;;;;52.27;47.50;;;;;;;7.93;100.00;100481.91;5031693;28;20491;-45
2022/11/16 04:24:37;;;;;;;53.90;49.20;;;;;;;8.00;100.00;100483.63;5031215;28;20995;-45
2022/11/16 04:29:56;;;;;;;53.20;48.70;;;;;;;8.03;100.00;100499.19;5031950;28;20840;-48
2022/11/16 04:37:57;;;;;;;49.60;45.40;;;;;;;8.04;100.00;100492.84;5031504;28;20448;-48
2022/11/16 04:40:28;;;;;;;50.30;46.10;;;;;;;8.03;100.00;100496.53;5031576;28;20436;-47
2022/11/16 04:42:57;;;;;;;52.73;47.90;;;;;;;8.04;100.00;100494.69;5031408;28;20447;-48
2022/11/16 04:48:13;;;;;;;50.83;46.23;;;;;;;8.05;100.00;100494.50;5051583;28;20478;-49
2022/11/16 04:50:42;;;;;;;50.27;45.93;;;;;;;8.08;100.00;100488.84;5051503;28;20481;-47
2022/11/16 04:53:11;;;;;;;50.40;45.87;;;;;;;8.10;100.00;100494.78;5041947;28;20447;-47
2022/11/16 04:55:38;;;;;;;50.23;45.63;;;;;;;8.09;100.00;100487.84;5033531;28;20506;-46
2022/11/16 04:58:06;;;;;;;51.90;47.60;;;;;;;8.08;100.00;100488.84;5033470;28;20458;-50
2022/11/16 05:00:34;;;;;;;49.17;44.97;;;;;;;8.06;100.00;100482.91;5034107;28;20495;-47
2022/11/16 05:03:03;;;;;;;50.93;46.43;;;;;;;8.08;100.00;100461.44;5035049;28;20983;-47
2022/11/16 05:05:31;;;;;;;54.20;49.67;;;;;;;8.08;100.00;100470.25;5034806;28;20505;-47
2022/11/16 05:08:00;;;;;;;52.20;47.83;;;;;;;8.10;100.00;100473.53;5035167;28;20505;-47
2022/11/16 05:10:27;;;;;;;53.20;48.40;;;;;;;8.07;100.00;100465.94;5035128;28;20999;-47
2022/11/16 05:12:55;;;;;;;52.83;48.40;;;;;;;8.06;100.00;100437.75;5034904;28;20432;-45
2022/11/16 05:15:23;;;;;;;52.67;48.27;;;;;;;8.05;100.00;100459.16;5017404;28;20452;-47
2022/11/16 05:17:53;;;;;;;52.33;48.10;;;;;;;8.03;100.00;100453.22;5015196;28;20519;-47
2022/11/16 05:24:32;;;;;;;53.53;48.73;;;;;;;7.97;100.00;100462.75;5015055;28;21093;-44
2022/11/16 05:25:55;;;;;;;49.70;45.80;;;;;;;8.00;100.00;100473.00;5014898;28;20448;-44
2022/11/16 05:28:23;;;;;;;52.17;47.40;;;;;;;7.99;100.00;100463.38;5015460;28;20518;-44
2022/11/16 05:30:51;;;;;;;53.40;48.33;;;;;;;7.95;100.00;100448.84;5014686;28;20436;-45
2022/11/16 05:33:18;;;;;;;53.70;49.00;;;;;;;7.95;100.00;100466.59;5014430;28;20437;-46
2022/11/16 05:35:49;;;;;;;54.87;49.60;;;;;;;7.95;100.00;100454.13;5014851;28;20520;-47
2022/11/16 05:38:18;;;;;;;53.73;48.43;;;;;;;7.94;100.00;100471.09;5015042;28;20970;-44
2022/11/16 05:40:46;;;;;;;55.47;50.57;;;;;;;7.96;100.00;100473.56;5014696;28;20439;-47
2022/11/16 05:43:14;;;;;;;55.00;49.80;;;;;;;7.97;100.00;100472.56;5015023;28;20717;-47
2022/11/16 05:45:42;;;;;;;55.37;50.57;;;;;;;7.93;100.00;100473.94;5014223;28;20457;-47
2022/11/16 05:48:10;;;;;;;56.07;50.63;;;;;;;7.95;100.00;100475.38;5014583;28;20500;-44
2022/11/16 05:50:37;;;;;;;56.07;51.07;;;;;;;7.94;100.00;100468.44;5014519;28;20499;-45
2022/11/16 05:53:09;;;;;;;55.33;50.27;;;;;;;7.94;100.00;100471.09;5022586;28;20925;-45
2022/11/16 05:55:38;;;;;;;53.40;49.00;;;;;;;7.95;100.00;100474.56;5051921;28;20507;-47
2022/11/16 05:58:06;;;;;;;57.73;52.63;;;;;;;7.91;100.00;100479.44;5054212;28;21071;-46
2022/11/16 06:00:33;;;;;;;56.93;51.30;;;;;;;7.89;100.00;100473.47;5053945;28;20997;-48
2022/11/16 06:03:01;;;;;;;56.50;51.30;;;;;;;7.88;100.00;100471.00;5053796;28;20479;-43
2022/11/16 06:05:28;;;;;;;58.90;53.60;;;;;;;7.86;100.00;100473.00;5034894;28;20987;-45
2022/11/16 06:07:56;;;;;;;57.53;51.83;;;;;;;7.79;100.00;100475.59;5034136;28;20448;-44
2022/11/16 06:10:23;;;;;;;60.50;54.80;;;;;;;7.74;100.00;100475.31;5034101;28;20837;-44
2022/11/16 06:12:52;;;;;;;59.03;53.70;;;;;;;7.65;100.00;100469.28;5033786;28;20440;-43
2022/11/16 06:15:20;;;;;;;58.17;52.90;;;;;;;7.58;100.00;100472.88;5033340;28;20460;-45
2022/11/16 06:17:48;;;;;;;59.70;54.10;;;;;;;7.56;100.00;100477.53;5033758;28;20872;-46
2022/11/16 06:20:16;;;;;;;57.77;52.57;;;;;;;7.50;100.00;100476.44;5034000;28;20432;-44
2022/11/16 06:22:43;;;;;;;59.00;53.63;;;;;;;7.44;100.00;100477.16;5033381;28;20464;-44
2022/11/16 06:25:11;;;;;;;61.10;55.30;;;;;;;7.41;100.00;100474.03;5033306;28;20518;-44
2022/11/16 06:27:39;;;;;;;60.93;54.47;;;;;;;7.38;100.00;100467.28;5033641;28;20961;-45
2022/11/16 06:30:09;;;;;;;59.50;54.20;;;;;;;7.33;100.00;100482.09;5033483;28;20494;-44
2022/11/16 06:32:36;;;;;;;59.40;54.00;;;;;;;7.28;100.00;100474.69;5033639;28;20912;-44
2022/11/16 06:35:04;;;;;;;59.47;53.23;;;;;;;7.31;100.00;100479.63;5033186;28;20517;-47
2022/11/16 06:37:32;;;;;;;61.40;55.40;;;;;;;7.24;100.00;100479.53;5033543;28;20452;-44
2022/11/16 06:40:00;;;;;;;58.77;53.43;;;;;;;7.28;100.00;100484.47;5033525;28;20506;-46
2022/11/16 06:42:27;;;;;;;60.43;54.33;;;;;;;7.25;100.00;100472.41;5033128;28;20888;-44
2022/11/16 06:44:55;;;;;;;58.20;52.20;;;;;;;7.22;100.00;100476.25;5046430;28;20521;-48
2022/11/16 06:47:24;;;;;;;58.43;51.67;;;;;;;7.23;100.00;100482.34;5053308;28;20454;-45
2022/11/16 06:49:51;;;;;;;59.67;53.20;;;;;;;7.26;100.00;100483.84;5053152;28;20439;-44
2022/11/16 06:52:19;;;;;;;59.53;53.03;;;;;;;7.24;100.00;100482.19;5050665;28;20851;-47
2022/11/16 06:54:47;;;;;;;64.40;54.87;;;;;;;7.21;100.00;100482.53;5024719;28;20519;-45
2022/11/16 06:57:14;;;;;;;62.57;53.63;;;;;;;7.17;100.00;100488.38;5033013;28;20515;-45
2022/11/16 06:59:42;;;;;;;59.00;53.40;;;;;;;7.14;100.00;100510.78;5033268;28;20436;-45
2022/11/16 07:02:10;;;;;;;61.33;54.97;;;;;;;7.14;100.00;100481.63;5032881;28;20479;-46
2022/11/16 07:04:39;;;;;;;59.70;53.40;;;;;;;7.13;100.00;100493.25;5032626;28;20467;-46
2022/11/16 07:07:06;;;;;;;59.77;53.60;;;;;;;7.18;100.00;100496.16;5032976;28;20688;-48
2022/11/16 07:09:34;;;;;;;60.77;54.77;;;;;;;7.15;100.00;100488.56;5032856;28;20472;-45
2022/11/16 07:12:02;;;;;;;61.77;55.40;;;;;;;7.17;100.00;100489.22;5032710;28;20432;-48
2022/11/16 07:14:29;;;;;;;60.30;53.80;;;;;;;7.16;100.00;100492.88;5022390;28;20893;-49
2022/11/16 07:16:57;;;;;;;62.10;55.37;;;;;;;7.23;100.00;100491.13;5011995;28;20523;-45
2022/11/16 07:19:29;;;;;;;64.13;56.70;;;;;;;7.18;100.00;100490.88;5013001;28;20455;-46
2022/11/16 07:21:58;;;;;;;62.17;55.50;;;;;;;7.22;100.00;100489.50;5012512;28;20531;-46
2022/11/16 07:24:26;;;;;;;64.83;55.70;;;;;;;7.22;100.00;100486.84;5012265;28;20986;-47
2022/11/16 07:26:53;;;;;;;61.97;55.63;;;;;;;7.22;100.00;100491.34;5012699;28;20457;-45
2022/11/16 07:29:21;;;;;;;62.00;55.73;;;;;;;7.29;100.00;100494.09;5012808;28;21121;-49
2022/11/16 07:31:49;;;;;;;63.27;56.60;;;;;;;7.28;100.00;100497.75;5012578;28;20437;-45
2022/11/16 07:34:16;;;;;;;59.70;53.40;;;;;;;7.33;100.00;100490.06;5020383;28;20499;-45
2022/11/16 07:36:44;;;;;;;59.40;53.60;;;;;;;7.36;100.00;100501.13;5032165;28;20460;-46
2022/11/16 07:39:13;;;;;;;62.27;55.67;;;;;;;7.39;100.00;100500.75;5032515;28;20441;-47
2022/11/16 07:41:41;;;;;;;65.23;58.43;;;;;;;7.39;100.00;100495.47;5032221;28;20833;-48
2022/11/16 07:44:08;;;;;;;61.23;54.70;;;;;;;7.41;100.00;100482.81;5024706;28;20469;-45
2022/11/16 07:46:39;;;;;;;64.33;56.70;;;;;;;7.39;100.00;100499.94;5012478;28;20451;-46
2022/11/16 07:49:16;;;;;;;60.63;54.17;;;;;;;7.41;100.00;100500.56;5012417;28;20532;-45
2022/11/16 07:51:44;;;;;;;63.50;56.50;;;;;;;7.40;100.00;100494.47;5009773;28;20938;-45
2022/11/16 07:54:14;;;;;;;64.70;55.37;;;;;;;7.39;100.00;100495.47;5019916;28;20461;-47
2022/11/16 07:56:42;;;;;;;60.90;54.63;;;;;;;7.42;100.00;100497.75;5012340;28;20445;-45
2022/11/16 07:59:10;;;;;;;65.80;53.90;;;;;;;7.42;100.00;100497.75;5012441;28;21000;-47
2022/11/16 08:01:37;;;;;;;62.30;55.10;;;;;;;7.44;100.00;100501.03;5011964;28;20429;-45
2022/11/16 08:04:05;;;;;;;58.80;53.30;;;;;;;7.42;100.00;100515.50;5018420;28;20857;-45
2022/11/16 08:06:32;;;;;;;58.37;52.27;;;;;;;7.40;100.00;100515.69;5031963;28;20475;-44
2022/11/16 08:09:00;;;;;;;60.33;54.03;;;;;;;7.45;100.00;100520.44;5031885;28;20436;-44
2022/11/16 08:11:29;;;;;;;64.83;54.10;;;;;;;7.45;100.00;100492.09;5031567;28;20435;-46
2022/11/16 08:13:57;;;;;;;60.87;54.60;;;;;;;7.47;100.00;100510.44;5031239;28;20966;-46
2022/11/16 08:16:25;;;;;;;62.27;55.80;;;;;;;7.55;100.00;100510.38;5031518;28;20486;-45
2022/11/16 08:18:52;;;;;;;61.07;54.70;;;;;;;7.53;100.00;100505.25;5031683;28;20960;-46
2022/11/16 08:21:20;;;;;;;61.63;55.03;;;;;;;7.57;100.00;100495.09;5031655;28;20424;-45
2022/11/16 08:23:48;;;;;;;63.63;55.90;;;;;;;7.63;100.00;100503.16;5031184;28;20468;-45
2022/11/16 08:26:21;;;;;;;58.70;52.40;;;;;;;7.68;100.00;100511.38;5031619;28;20451;-45
2022/11/16 08:28:52;;;;;;;59.67;53.00;;;;;;;7.67;100.00;100511.59;5031319;28;20490;-48
2022/11/16 08:31:22;;;;;;;59.27;51.03;;;;;;;7.72;100.00;100502.06;5064084;22;20487;-46
2022/11/16 08:33:50;;;;;;;57.53;51.30;;;;;;;7.69;100.00;100499.78;5051325;28;20461;-44
2022/11/16 08:36:19;;;;;;;60.30;53.57;;;;;;;7.71;100.00;100500.41;5051755;28;20507;-44
2022/11/16 08:38:48;;;;;;;60.77;54.57;;;;;;;7.78;100.00;100495.19;5051510;28;20435;-45
2022/11/16 08:41:17;;;;;;;59.60;53.63;;;;;;;7.78;100.00;100490.72;5051568;28;20455;-44
2022/11/16 08:43:45;;;;;;;58.27;52.43;;;;;;;7.78;100.00;100493.34;5047625;28;20525;-44
2022/11/16 08:46:14;;;;;;;58.43;52.10;;;;;;;7.78;100.00;100471.28;5031858;28;20432;-45
2022/11/16 08:48:43;;;;;;;60.00;52.37;;;;;;;7.80;100.00;100487.84;5031733;28;20498;-44
2022/11/16 08:51:12;;;;;;;55.53;50.37;;;;;;;7.85;100.00;100488.16;5030203;28;20456;-44
2022/11/16 08:53:47;;;;;;;58.40;52.40;;;;;;;7.90;100.00;100491.06;5027097;28;20461;-49
2022/11/16 08:56:18;;;;;;;59.33;52.93;;;;;;;7.90;100.00;100499.03;5051667;28;20419;-50
2022/11/16 08:58:46;;;;;;;58.53;52.87;;;;;;;7.94;100.00;100497.66;5051654;28;20603;-44
2022/11/16 09:01:21;;;;;;;55.03;49.77;;;;;;;7.95;100.00;100498.44;5051148;28;20965;-43
2022/11/16 09:03:49;;;;;;;57.77;51.97;;;;;;;8.01;100.00;100511.81;5050962;28;20486;-47
2022/11/16 09:06:17;;;;;;;55.87;50.67;;;;;;;8.07;100.00;100519.03;5051272;28;20488;-44
2022/11/16 09:08:46;;;;;;;60.47;52.30;;;;;;;8.07;100.00;100507.59;5051629;28;20951;-48
2022/11/16 09:11:16;;;;;;;53.73;48.97;;;;;;;8.10;100.00;100504.56;5051176;28;20447;-44
2022/11/16 09:13:44;;;;;;;56.47;50.67;;;;;;;8.12;100.00;100511.34;5047202;28;20976;-45
2022/11/16 09:16:14;;;;;;;53.13;48.30;;;;;;;8.08;100.00;100510.06;5031425;28;20474;-46
2022/11/16 09:18:45;;;;;;;50.30;46.03;;;;;;;8.12;100.00;100516.63;5031377;28;20443;-46
2022/11/16 09:21:12;;;;;;;54.23;49.17;;;;;;;8.17;100.00;100510.78;5031328;28;20459;-46
2022/11/16 09:23:40;;;;;;;52.47;48.27;;;;;;;8.15;100.00;100503.00;5031005;28;20456;-47
2022/11/16 09:26:07;;;;;;;51.43;47.03;;;;;;;8.18;100.00;100512.44;5031348;28;20808;-46
2022/11/16 09:28:35;;;;;;;50.23;45.80;;;;;;;8.15;100.00;100502.19;5031362;28;20432;-47
2022/11/16 09:31:04;;;;;;;50.27;45.73;;;;;;;8.15;100.00;100521.59;5030801;28;20466;-44
2022/11/16 09:33:33;;;;;;;51.60;47.40;;;;;;;8.15;100.00;100526.91;5030969;28;20432;-45
2022/11/16 09:36:05;;;;;;;50.27;46.07;;;;;;;8.22;100.00;100517.19;5031180;28;20984;-45
2022/11/16 09:38:33;;;;;;;51.67;46.67;;;;;;;8.26;100.00;100507.84;5031391;28;20428;-47
2022/11/16 09:41:37;;;;;;;51.00;46.70;;;;;;;8.26;100.00;100507.00;5033435;28;20484;-44
2022/11/16 09:44:17;;;;;;;49.40;45.47;;;;;;;8.21;100.00;100526.16;5034448;28;21032;-44
2022/11/16 09:46:48;;;;;;;51.53;46.97;;;;;;;8.21;100.00;100520.84;5034800;28;20478;-47
2022/11/16 09:49:21;;;;;;;51.13;46.60;;;;;;;8.17;100.00;100529.38;5034517;28;20431;-46
2022/11/16 09:51:54;;;;;;;49.97;45.60;;;;;;;8.17;100.00;100527.56;5034124;28;20791;-45
2022/11/16 09:54:25;;;;;;;49.03;44.90;;;;;;;8.15;100.00;100532.22;5034032;28;20518;-44
2022/11/16 09:56:57;;;;;;;50.17;46.30;;;;;;;8.11;100.00;100520.31;5034533;28;20432;-44
2022/11/16 09:59:27;;;;;;;52.17;47.37;;;;;;;8.15;100.00;100528.75;5034407;28;20485;-45
2022/11/16 10:01:58;;;;;;;50.83;46.50;;;;;;;8.13;100.00;100531.56;5034252;28;20460;-45
2022/11/16 10:04:35;;;;;;;48.60;44.77;;;;;;;8.18;100.00;100541.66;5033755;28;20869;-43
2022/11/16 10:07:12;;;;;;;50.70;46.63;;;;;;;8.19;100.00;100548.59;5034525;28;20428;-47
2022/11/16 10:09:40;;;;;;;51.23;46.97;;;;;;;8.12;100.00;100545.84;5034383;28;20452;-45
2022/11/16 10:12:15;;;;;;;52.10;48.13;;;;;;;8.07;100.00;100542.94;5034062;28;20452;-45
2022/11/16 10:15:03;;;;;;;50.50;46.70;;;;;;;8.08;100.00;100547.25;5033759;28;20472;-45
2022/11/16 10:17:40;;;;;;;49.50;45.63;;;;;;;8.10;100.00;100545.22;5034290;28;20432;-44
2022/11/16 10:20:29;;;;;;;50.33;46.50;;;;;;;8.09;100.00;100561.38;5034248;28;20439;-47
2022/11/16 10:23:08;;;;;;;48.80;44.80;;;;;;;8.10;100.00;100560.34;5033965;28;20432;-46
2022/11/16 10:25:42;;;;;;;51.87;47.40;;;;;;;8.13;100.00;100566.09;5033497;28;20463;-44
2022/11/16 10:28:28;;;;;;;50.10;45.83;;;;;;;8.09;100.00;100556.88;5034104;28;20799;-46
2022/11/16 10:31:02;;;;;;;49.80;45.90;;;;;;;8.14;100.00;100549.16;5033503;28;20837;-46
2022/11/16 10:33:35;;;;;;;47.77;43.93;;;;;;;8.18;100.00;100553.09;5033369;28;20435;-45
2022/11/16 10:36:11;;;;;;;47.90;43.70;;;;;;;8.17;100.00;100550.63;5033943;28;20436;-46
2022/11/16 10:38:40;;;;;;;48.53;45.03;;;;;;;8.12;100.00;100561.00;5033937;28;20420;-44
2022/11/16 10:41:18;;;;;;;49.53;45.40;;;;;;;8.10;100.00;100542.56;5033400;28;20460;-45
2022/11/16 10:43:47;;;;;;;49.53;45.20;;;;;;;8.13;100.00;100549.34;5033097;28;20480;-46
2022/11/16 10:46:21;;;;;;;49.00;44.90;;;;;;;8.13;100.00;100552.81;5033454;28;20486;-43
2022/11/16 10:48:58;;;;;;;47.57;44.13;;;;;;;8.15;100.00;100550.81;5033803;28;20436;-46
2022/11/16 10:51:26;;;;;;;49.63;45.00;;;;;;;8.21;100.00;100546.59;5033113;28;20478;-46
2022/11/16 10:53:55;;;;;;;47.23;43.47;;;;;;;8.20;100.00;100537.81;5032783;28;20456;-46
2022/11/16 10:56:27;;;;;;;48.97;45.13;;;;;;;8.18;100.00;100534.50;5033353;28;20432;-44
2022/11/16 10:58:57;;;;;;;49.87;45.83;;;;;;;8.20;100.00;100540.47;5033402;28;20498;-44
2022/11/16 11:01:35;;;;;;;47.57;43.83;;;;;;;8.13;100.00;100520.13;5033176;28;20460;-46
2022/11/16 11:04:18;;;;;;;49.80;45.47;;;;;;;8.18;100.00;100541.66;5033023;28;20476;-46
2022/11/16 11:06:50;;;;;;;46.20;42.70;;;;;;;8.22;100.00;100549.06;5033331;28;20431;-44
2022/11/16 11:09:28;;;;;;;48.60;44.70;;;;;;;8.28;100.00;100560.81;5033011;28;20539;-49
2022/11/16 11:15:00;;;;;;;45.50;42.10;;;;;;;8.18;100.00;100547.78;5032945;28;20822;-44
2022/11/16 11:17:28;;;;;;;46.83;43.23;;;;;;;8.20;100.00;100547.59;5032901;28;21072;-45
2022/11/16 11:20:02;;;;;;;49.27;45.67;;;;;;;8.18;100.00;100539.00;5033196;28;20844;-47
2022/11/16 11:22:32;;;;;;;50.33;46.23;;;;;;;8.22;100.00;100535.78;5032681;28;20444;-45
2022/11/16 11:25:03;;;;;;;47.77;44.17;;;;;;;8.25;100.00;100547.88;5032356;28;20468;-45
2022/11/16 11:27:33;;;;;;;49.27;45.23;;;;;;;8.19;100.00;100537.97;5032800;28;20428;-45
2022/11/16 11:30:02;;;;;;;48.33;44.40;;;;;;;8.15;100.00;100542.84;5032588;28;20447;-43
2022/11/16 11:32:34;;;;;;;48.70;44.40;;;;;;;8.18;100.00;100547.78;5032273;28;20464;-46
2022/11/16 11:35:02;;;;;;;48.93;44.43;;;;;;;8.16;100.00;100546.31;5032175;28;20456;-44
2022/11/16 11:37:33;;;;;;;48.80;44.70;;;;;;;8.12;100.00;100550.38;5032624;28;20432;-46
2022/11/16 11:40:20;;;;;;;51.77;47.17;;;;;;;8.11;100.00;100548.72;5032555;28;20945;-44
2022/11/16 11:42:57;;;;;;;48.97;45.20;;;;;;;8.14;100.00;100556.31;5032444;28;20432;-45
2022/11/16 11:45:32;;;;;;;48.37;44.47;;;;;;;8.13;100.00;100555.47;5031829;28;20479;-43
2022/11/16 11:48:02;;;;;;;49.50;45.40;;;;;;;8.14;100.00;100556.31;5032481;28;20431;-46
2022/11/16 11:50:45;;;;;;;48.53;44.70;;;;;;;8.07;100.00;100552.75;5032314;28;20436;-44
2022/11/16 11:53:25;;;;;;;49.67;45.37;;;;;;;8.07;100.00;100555.41;5032322;28;20841;-43
2022/11/16 11:55:57;;;;;;;50.57;46.30;;;;;;;8.09;100.00;100554.22;5032275;28;20440;-45
2022/11/16 11:58:30;;;;;;;49.30;45.07;;;;;;;8.10;100.00;100561.16;5032190;28;20490;-45
2022/11/16 12:01:15;;;;;;;50.20;46.03;;;;;;;8.07;100.00;100552.75;5031991;28;20965;-47
2022/11/16 12:04:11;;;;;;;47.90;44.30;;;;;;;8.08;100.00;100555.22;5026690;28;20982;-44
2022/11/16 12:06:44;;;;;;;51.40;47.10;;;;;;;8.08;100.00;100554.41;5012591;28;20491;-45
2022/11/16 12:09:31;;;;;;;50.37;45.97;;;;;;;8.06;100.00;100549.28;5012438;28;20495;-45
2022/11/16 12:12:16;;;;;;;53.07;48.37;;;;;;;8.12;100.00;100555.69;5012357;28;20958;-46